In Rescue
 
Open Full Screen Window  High Contrast Mode
Wind Gusting 00 knots
05
July 13, 2020 9:28 AM EDT
Weather Information
Wind Direction
  170 °
Wind Speed
  05 kt (6 mph)
Wind Gust
  00 kt (0 mph)
Altimeter
29.78 in
Visibility
10 SM
Temperature
24° C
75° F
Dewpoint
18° C
64° F
Humidity
69%
1hr Rain Fall
00.00 in.
24hr Rain Fall
00.00 in.
Sky Condition
Broken @ 2,100 ft
MVFR

METAR K6B0 131328Z AUTO 17005KT 10SM BKN021 24/18 A2978 RMK AO2 T02410183

FAA Disclaimer: The data displayed is for advisory purposes only and is not to be used for flight planning or operations.